createdAt,value
2023-03-06T00:01:11.544Z,1.88
2023-03-06T00:03:41.670Z,2.63
2023-03-06T00:06:10.455Z,3.17
2023-03-06T00:08:39.062Z,2.92
2023-03-06T00:11:07.768Z,3.03
2023-03-06T00:13:36.636Z,2.40
2023-03-06T00:16:07.115Z,2.17
2023-03-06T00:18:35.891Z,2.78
2023-03-06T00:21:08.932Z,2.95
2023-03-06T00:23:37.832Z,3.72
2023-03-06T00:26:08.688Z,2.92
2023-03-06T00:28:39.583Z,3.15
2023-03-06T00:31:08.373Z,2.15
2023-03-06T00:33:37.762Z,3.38
2023-03-06T00:36:08.621Z,2.80
2023-03-06T00:38:37.445Z,3.58
2023-03-06T00:41:10.975Z,2.40
2023-03-06T00:43:39.848Z,3.00
2023-03-06T00:46:09.895Z,2.85
2023-03-06T00:48:38.710Z,2.90
2023-03-06T00:51:08.889Z,2.25
2023-03-06T00:53:38.309Z,3.95
2023-03-06T00:56:09.201Z,2.45
2023-03-06T00:58:38.452Z,3.60
2023-03-06T01:01:07.628Z,3.90
2023-03-06T01:03:36.340Z,2.80
2023-03-06T01:06:05.132Z,3.80
2023-03-06T01:08:38.494Z,2.40
2023-03-06T01:11:07.603Z,4.30
2023-03-06T01:13:36.198Z,3.00
2023-03-06T01:16:10.353Z,3.10
2023-03-06T01:18:39.671Z,2.72
2023-03-06T01:21:08.939Z,4.32
2023-03-06T01:23:39.401Z,3.00
2023-03-06T01:26:08.355Z,2.88
2023-03-06T01:28:39.194Z,2.90
2023-03-06T01:31:08.789Z,5.03
2023-03-06T01:33:37.898Z,6.32
2023-03-06T01:36:08.043Z,4.70
2023-03-06T01:38:38.791Z,3.92
2023-03-06T01:41:08.084Z,3.83
2023-03-06T01:43:38.935Z,3.85
2023-03-06T01:46:33.426Z,3.90
2023-03-06T01:49:05.659Z,3.63
2023-03-06T01:51:39.175Z,3.90
2023-03-06T01:54:14.229Z,3.60
2023-03-06T01:56:45.741Z,3.47
2023-03-06T01:59:15.111Z,5.95
2023-03-06T02:01:46.125Z,4.78
2023-03-06T02:04:17.293Z,2.65
2023-03-06T02:06:46.204Z,3.88
2023-03-06T02:09:16.566Z,6.05
2023-03-06T02:11:46.429Z,4.97
2023-03-06T02:14:17.637Z,4.90
2023-03-06T02:16:46.406Z,4.00
2023-03-06T02:19:31.374Z,4.03
2023-03-06T02:22:00.506Z,3.15
2023-03-06T02:24:40.420Z,6.07
2023-03-06T02:27:14.381Z,3.92
2023-03-06T02:29:45.013Z,3.45
2023-03-06T02:32:13.880Z,4.75
2023-03-06T02:34:54.741Z,3.33
2023-03-06T02:37:24.760Z,4.30
2023-03-06T02:40:09.420Z,3.05
2023-03-06T02:42:39.591Z,6.75
2023-03-06T02:45:11.913Z,2.75
2023-03-06T02:47:41.162Z,3.17
2023-03-06T02:50:10.696Z,3.17
2023-03-06T02:52:39.452Z,3.22
2023-03-06T02:55:09.068Z,3.92
2023-03-06T02:57:39.056Z,3.95
2023-03-06T03:00:09.102Z,4.03
2023-03-06T03:02:37.916Z,3.55
2023-03-06T03:05:07.509Z,3.53
2023-03-06T03:07:37.248Z,3.58
2023-03-06T03:10:06.553Z,4.53
2023-03-06T03:12:35.309Z,5.75
2023-03-06T03:15:06.003Z,5.25
2023-03-06T03:17:37.190Z,4.43
2023-03-06T03:20:06.760Z,3.85
2023-03-06T03:22:35.580Z,3.67
2023-03-06T03:25:04.508Z,5.47
2023-03-06T03:27:33.441Z,4.80
2023-03-06T03:30:02.520Z,4.60
2023-03-06T03:32:32.771Z,4.40
2023-03-06T03:35:01.979Z,3.63
2023-03-06T03:37:31.771Z,2.65
2023-03-06T03:40:01.501Z,6.18
2023-03-06T03:42:30.887Z,4.20
2023-03-06T03:44:59.410Z,4.57
2023-03-06T03:47:28.599Z,3.13
2023-03-06T03:49:58.778Z,3.63
2023-03-06T03:52:27.516Z,3.40
2023-03-06T03:54:56.527Z,3.20
2023-03-06T03:57:26.109Z,3.30
2023-03-06T03:59:56.513Z,5.35
2023-03-06T04:02:42.162Z,2.80
2023-03-06T04:05:33.350Z,4.18
2023-03-06T04:08:03.310Z,4.43
2023-03-06T04:10:34.413Z,3.70
2023-03-06T04:13:04.185Z,3.75
2023-03-06T04:15:35.987Z,4.25
2023-03-06T04:18:06.132Z,3.58
2023-03-06T04:20:36.141Z,5.78
2023-03-06T04:23:06.393Z,5.60
2023-03-06T04:25:35.029Z,5.05
2023-03-06T04:28:07.244Z,3.90
2023-03-06T04:30:36.448Z,4.10
2023-03-06T04:33:06.182Z,3.80
2023-03-06T04:35:37.573Z,4.32
2023-03-06T04:38:11.440Z,5.10
2023-03-06T04:40:40.135Z,6.97
2023-03-06T04:43:09.089Z,7.45
2023-03-06T04:45:37.797Z,4.50
2023-03-06T04:48:07.136Z,5.38
2023-03-06T04:50:38.258Z,5.90
2023-03-06T04:53:06.878Z,4.55
2023-03-06T04:55:35.472Z,6.28
2023-03-06T04:58:04.369Z,4.78
2023-03-06T05:00:33.128Z,8.05
2023-03-06T05:03:02.999Z,5.18
2023-03-06T05:05:32.382Z,5.57
2023-03-06T05:08:02.530Z,3.90
2023-03-06T05:10:34.188Z,5.03
2023-03-06T05:13:02.838Z,8.57
2023-03-06T05:15:31.591Z,7.15
2023-03-06T05:18:00.334Z,5.85
2023-03-06T05:20:29.335Z,3.70
2023-03-06T05:22:58.456Z,7.18
2023-03-06T05:25:28.610Z,7.43
2023-03-06T05:27:58.404Z,7.03
2023-03-06T05:30:27.400Z,6.20
2023-03-06T05:32:55.922Z,4.35
2023-03-06T05:35:25.822Z,5.35
2023-03-06T05:37:54.367Z,6.32
2023-03-06T05:40:23.508Z,5.95
2023-03-06T05:42:53.542Z,5.80
2023-03-06T05:45:22.263Z,4.28
2023-03-06T05:47:50.790Z,5.93
2023-03-06T05:50:19.576Z,6.15
2023-03-06T05:52:48.270Z,5.07
2023-03-06T05:55:17.029Z,5.28
2023-03-06T05:57:45.628Z,5.90
2023-03-06T06:00:17.697Z,5.25
2023-03-06T06:02:46.690Z,5.95
2023-03-06T06:05:15.333Z,4.25
2023-03-06T06:07:44.315Z,5.13
2023-03-06T06:10:15.418Z,4.70
2023-03-06T06:12:44.103Z,5.88
2023-03-06T06:15:13.025Z,4.60
2023-03-06T06:17:43.201Z,5.88
2023-03-06T06:20:13.955Z,7.35
2023-03-06T06:22:42.636Z,5.13
2023-03-06T06:25:11.573Z,6.55
2023-03-06T06:27:40.721Z,6.38
2023-03-06T06:30:13.164Z,7.55
2023-03-06T06:32:43.377Z,4.50
2023-03-06T06:35:12.443Z,6.03
2023-03-06T06:37:41.263Z,5.25
2023-03-06T06:40:11.654Z,5.10
2023-03-06T06:42:41.551Z,8.90
2023-03-06T06:45:12.447Z,7.13
2023-03-06T06:47:43.987Z,5.00
2023-03-06T06:50:14.506Z,5.75
2023-03-06T06:52:43.975Z,8.60
2023-03-06T06:55:13.829Z,4.97
2023-03-06T06:57:43.508Z,5.55
2023-03-06T07:00:15.444Z,5.32
2023-03-06T07:02:49.266Z,6.03
2023-03-06T07:05:20.993Z,6.68
2023-03-06T07:07:52.453Z,8.55
2023-03-06T07:10:21.675Z,6.20
2023-03-06T07:12:51.260Z,6.57
2023-03-06T07:15:20.216Z,5.43
2023-03-06T07:17:50.541Z,6.00
2023-03-06T07:20:19.908Z,8.45
2023-03-06T07:22:51.943Z,7.40
2023-03-06T07:25:21.516Z,4.45
2023-03-06T07:27:54.286Z,8.60
2023-03-06T07:30:24.463Z,5.40
2023-03-06T07:32:59.294Z,6.65
2023-03-06T07:35:28.506Z,5.45
2023-03-06T07:37:57.505Z,8.05
2023-03-06T07:40:27.775Z,6.32
2023-03-06T07:43:09.120Z,7.22
2023-03-06T07:45:49.521Z,7.07
2023-03-06T07:48:19.650Z,8.50
2023-03-06T07:50:57.061Z,6.40
2023-03-06T07:53:26.742Z,6.07
2023-03-06T07:55:56.566Z,6.97
2023-03-06T07:58:25.674Z,6.30
2023-03-06T08:00:55.179Z,6.85
2023-03-06T08:03:25.261Z,5.68
2023-03-06T08:05:56.475Z,7.63
2023-03-06T08:08:28.544Z,7.53
2023-03-06T08:10:57.233Z,6.60
2023-03-06T08:13:25.759Z,10.85
2023-03-06T08:15:55.106Z,10.65
2023-03-06T08:18:25.677Z,7.85
2023-03-06T08:21:04.165Z,5.63
2023-03-06T08:23:33.831Z,8.02
2023-03-06T08:26:05.936Z,8.73
2023-03-06T08:28:35.208Z,9.77
2023-03-06T08:31:11.556Z,8.50
2023-03-06T08:33:46.036Z,11.55
2023-03-06T08:36:14.751Z,15.32
2023-03-06T08:38:44.054Z,11.77
2023-03-06T08:41:12.833Z,11.38
2023-03-06T08:43:41.833Z,14.52
2023-03-06T08:46:12.250Z,14.98
2023-03-06T08:48:40.995Z,15.75
2023-03-06T08:51:12.328Z,10.63
2023-03-06T08:53:43.547Z,12.02
2023-03-06T08:56:18.277Z,13.90
2023-03-06T08:58:47.683Z,9.25
2023-03-06T09:01:17.891Z,12.88
2023-03-06T09:03:47.101Z,12.60
2023-03-06T09:06:18.525Z,10.15
2023-03-06T09:08:52.424Z,13.27
2023-03-06T09:11:25.071Z,12.73
2023-03-06T09:13:54.889Z,12.35
2023-03-06T09:16:24.919Z,9.50
2023-03-06T09:18:58.168Z,11.85
2023-03-06T09:21:28.761Z,13.70
2023-03-06T09:23:58.596Z,11.52
2023-03-06T09:26:43.408Z,10.07
2023-03-06T09:29:16.571Z,13.05
2023-03-06T09:31:46.317Z,11.50
2023-03-06T09:34:15.715Z,13.25
2023-03-06T09:36:56.431Z,9.77
2023-03-06T09:39:27.502Z,9.70
2023-03-06T09:41:58.606Z,9.93
2023-03-06T09:44:30.144Z,9.95
2023-03-06T09:47:24.275Z,11.80
2023-03-06T09:50:15.464Z,11.13
2023-03-06T09:52:58.439Z,8.90
2023-03-06T09:55:28.772Z,12.13
2023-03-06T09:58:03.833Z,12.02
2023-03-06T10:00:38.973Z,10.02
2023-03-06T10:03:22.800Z,7.60
2023-03-06T10:05:54.613Z,9.18
2023-03-06T10:08:30.590Z,8.57
2023-03-06T10:11:03.783Z,9.77
2023-03-06T10:13:41.673Z,11.68
2023-03-06T10:16:29.394Z,11.23
2023-03-06T10:19:03.328Z,10.00
2023-03-06T10:21:46.553Z,8.70
2023-03-06T10:24:36.799Z,9.88
2023-03-06T10:27:18.953Z,11.25
2023-03-06T10:30:02.638Z,10.02
2023-03-06T10:32:48.638Z,8.02
2023-03-06T10:35:23.017Z,11.48
2023-03-06T10:37:52.567Z,9.02
2023-03-06T10:40:36.366Z,8.02
2023-03-06T10:43:12.334Z,8.95
2023-03-06T10:45:52.551Z,10.15
2023-03-06T10:48:23.665Z,7.90
2023-03-06T10:50:53.545Z,10.15
2023-03-06T10:53:26.197Z,9.73
2023-03-06T10:55:58.693Z,9.85
2023-03-06T10:58:30.161Z,10.65
2023-03-06T11:01:04.446Z,8.05
2023-03-06T11:03:33.827Z,8.55
2023-03-06T11:06:11.426Z,10.63
2023-03-06T11:08:42.907Z,9.05
2023-03-06T11:11:18.554Z,10.15
2023-03-06T11:13:59.755Z,7.45
2023-03-06T11:16:30.876Z,9.07
2023-03-06T11:19:01.504Z,11.00
2023-03-06T11:21:32.571Z,9.02
2023-03-06T11:24:07.553Z,9.25
2023-03-06T11:26:46.261Z,9.07
2023-03-06T11:29:38.713Z,8.95
2023-03-06T11:32:13.816Z,8.38
2023-03-06T11:34:50.561Z,8.38
2023-03-06T11:37:41.153Z,7.85
2023-03-06T11:40:21.623Z,7.80
2023-03-06T11:43:00.477Z,11.18
2023-03-06T11:45:34.870Z,9.00
2023-03-06T11:48:20.299Z,9.30
2023-03-06T11:50:51.410Z,8.55
2023-03-06T11:53:22.278Z,10.23
2023-03-06T11:56:01.013Z,10.82
2023-03-06T11:58:55.431Z,8.05
2023-03-06T12:01:28.687Z,9.93
2023-03-06T12:04:33.489Z,9.15
2023-03-06T12:07:13.115Z,9.98
2023-03-06T12:09:48.166Z,7.63
2023-03-06T12:12:31.922Z,9.07
2023-03-06T12:15:23.742Z,8.13
2023-03-06T12:18:09.340Z,7.13
2023-03-06T12:21:01.462Z,10.00
2023-03-06T12:23:54.989Z,8.40
2023-03-06T12:26:41.434Z,7.80
2023-03-06T12:29:21.151Z,8.70
2023-03-06T12:32:08.952Z,9.48
2023-03-06T12:34:51.975Z,9.20
2023-03-06T12:37:27.756Z,8.63
2023-03-06T12:40:23.151Z,7.10
2023-03-06T12:43:18.787Z,8.57
2023-03-06T12:45:49.732Z,8.00
2023-03-06T12:48:24.507Z,10.77
2023-03-06T12:50:54.795Z,7.55
2023-03-06T12:53:28.671Z,8.65
2023-03-06T12:55:59.291Z,9.02
2023-03-06T12:58:47.661Z,9.60
2023-03-06T13:01:38.477Z,9.68
2023-03-06T13:04:29.273Z,6.68
2023-03-06T13:07:09.203Z,9.27
2023-03-06T13:09:56.583Z,8.88
2023-03-06T13:12:37.182Z,7.00
2023-03-06T13:15:46.252Z,9.18
2023-03-06T13:18:51.618Z,9.65
2023-03-06T13:22:09.127Z,8.35
2023-03-06T13:24:39.405Z,8.70
2023-03-06T13:27:10.390Z,8.65
2023-03-06T13:30:22.990Z,8.18
2023-03-06T13:32:54.000Z,8.25
2023-03-06T13:35:55.073Z,9.90
2023-03-06T13:38:39.284Z,6.70
2023-03-06T13:41:52.179Z,7.82
2023-03-06T13:44:50.995Z,7.43
2023-03-06T13:48:05.797Z,5.97
2023-03-06T13:50:48.712Z,8.02
2023-03-06T13:53:56.580Z,7.10
2023-03-06T13:57:00.790Z,7.13
2023-03-06T14:00:08.756Z,8.07
2023-03-06T14:03:08.020Z,7.72
2023-03-06T14:05:44.048Z,5.85
2023-03-06T14:08:16.906Z,9.15
2023-03-06T14:10:50.442Z,7.35
2023-03-06T14:13:23.783Z,6.43
2023-03-06T14:15:55.684Z,7.85
2023-03-06T14:18:26.870Z,7.32
2023-03-06T14:20:58.865Z,7.28
2023-03-06T14:23:30.612Z,6.07
2023-03-06T14:26:06.202Z,7.05
2023-03-06T14:28:36.766Z,7.78
2023-03-06T14:31:07.627Z,7.60
2023-03-06T14:33:44.414Z,8.15
2023-03-06T14:36:16.119Z,7.22
2023-03-06T14:38:47.856Z,8.98
2023-03-06T14:41:25.320Z,8.77
2023-03-06T14:44:08.365Z,9.15
2023-03-06T14:46:38.861Z,7.05
2023-03-06T14:49:08.890Z,6.90
2023-03-06T14:51:43.105Z,7.43
2023-03-06T14:54:19.653Z,7.85
2023-03-06T14:56:53.104Z,7.15
2023-03-06T14:59:28.571Z,11.07
2023-03-06T15:02:02.733Z,6.30
2023-03-06T15:04:36.773Z,6.88
2023-03-06T15:07:10.611Z,8.32
2023-03-06T15:09:40.432Z,6.45
2023-03-06T15:12:38.823Z,6.72
2023-03-06T15:15:30.888Z,8.10
2023-03-06T15:18:01.455Z,5.38
2023-03-06T15:20:45.937Z,8.40
2023-03-06T15:23:20.229Z,6.75
2023-03-06T15:25:57.793Z,7.13
2023-03-06T15:28:33.789Z,5.45
2023-03-06T15:31:19.272Z,5.22
2023-03-06T15:34:03.770Z,5.60
2023-03-06T15:36:33.765Z,6.13
2023-03-06T15:39:02.599Z,6.35
2023-03-06T15:41:34.775Z,7.35
2023-03-06T15:44:09.904Z,6.25
2023-03-06T15:46:38.786Z,7.15
2023-03-06T15:49:16.335Z,6.70
2023-03-06T15:51:45.083Z,6.40
2023-03-06T15:54:13.955Z,7.78
2023-03-06T15:56:44.515Z,6.18
2023-03-06T15:59:21.365Z,6.95
2023-03-06T16:01:50.692Z,7.13
2023-03-06T16:04:21.093Z,6.30
2023-03-06T16:06:50.340Z,5.93
2023-03-06T16:09:19.078Z,8.73
2023-03-06T16:11:47.933Z,6.40
2023-03-06T16:14:21.282Z,9.55
2023-03-06T16:16:50.731Z,8.10
2023-03-06T16:19:27.089Z,9.82
2023-03-06T16:21:56.726Z,6.28
2023-03-06T16:24:28.241Z,6.88
2023-03-06T16:26:57.161Z,7.40
2023-03-06T16:29:27.685Z,7.75
2023-03-06T16:31:58.054Z,6.78
2023-03-06T16:34:28.303Z,7.72
2023-03-06T16:36:57.063Z,8.60
2023-03-06T16:39:25.891Z,7.88
2023-03-06T16:41:54.542Z,9.13
2023-03-06T16:44:23.533Z,7.28
2023-03-06T16:46:52.393Z,6.82
2023-03-06T16:49:23.330Z,7.47
2023-03-06T16:51:56.294Z,6.20
2023-03-06T16:54:26.444Z,8.10
2023-03-06T16:56:55.136Z,7.60
2023-03-06T16:59:25.080Z,6.78
2023-03-06T17:01:53.884Z,9.23
2023-03-06T17:04:22.440Z,8.27
2023-03-06T17:06:52.811Z,7.25
2023-03-06T17:09:23.202Z,7.57
2023-03-06T17:11:52.002Z,10.32
2023-03-06T17:14:20.834Z,8.40
2023-03-06T17:16:49.673Z,7.30
2023-03-06T17:19:18.986Z,8.05
2023-03-06T17:21:47.642Z,7.85
2023-03-06T17:24:16.231Z,8.98
2023-03-06T17:26:47.138Z,6.75
2023-03-06T17:29:16.131Z,7.10
2023-03-06T17:31:44.787Z,7.57
2023-03-06T17:34:13.470Z,7.18
2023-03-06T17:36:42.445Z,6.60
2023-03-06T17:39:11.801Z,9.88
2023-03-06T17:41:40.331Z,9.52
2023-03-06T17:44:12.127Z,6.40
2023-03-06T17:46:40.692Z,7.68
2023-03-06T17:49:09.278Z,12.20
2023-03-06T17:51:39.093Z,5.90
2023-03-06T17:54:08.872Z,7.22
2023-03-06T17:56:38.040Z,8.38
2023-03-06T17:59:06.603Z,5.53
2023-03-06T18:01:37.504Z,8.48
2023-03-06T18:04:06.534Z,7.65
2023-03-06T18:06:35.866Z,8.38
2023-03-06T18:09:05.156Z,7.80
2023-03-06T18:11:34.196Z,6.78
2023-03-06T18:14:05.614Z,8.60
2023-03-06T18:16:34.615Z,5.95
2023-03-06T18:19:04.575Z,8.27
2023-03-06T18:21:33.068Z,7.40
2023-03-06T18:24:01.720Z,7.88
2023-03-06T18:26:31.198Z,8.85
2023-03-06T18:29:03.809Z,8.73
2023-03-06T18:31:35.033Z,6.53
2023-03-06T18:34:07.499Z,9.25
2023-03-06T18:36:37.678Z,6.57
2023-03-06T18:39:09.733Z,8.27
2023-03-06T18:41:39.001Z,9.43
2023-03-06T18:44:08.225Z,7.10
2023-03-06T18:46:39.804Z,7.70
2023-03-06T18:49:10.267Z,8.82
2023-03-06T18:51:39.213Z,9.25
2023-03-06T18:54:09.114Z,8.15
2023-03-06T18:56:39.414Z,7.32
2023-03-06T18:59:08.680Z,11.63
2023-03-06T19:01:37.842Z,8.52
2023-03-06T19:04:07.116Z,10.93
2023-03-06T19:06:38.792Z,6.68
2023-03-06T19:09:07.589Z,8.35
2023-03-06T19:11:36.175Z,7.40
2023-03-06T19:14:08.685Z,9.07
2023-03-06T19:16:37.546Z,8.35
2023-03-06T19:19:06.558Z,9.25
2023-03-06T19:21:36.576Z,8.98
2023-03-06T19:24:07.102Z,9.15
2023-03-06T19:26:36.025Z,7.40
2023-03-06T19:29:04.674Z,11.00
2023-03-06T19:31:33.423Z,7.78
2023-03-06T19:34:02.250Z,7.38
2023-03-06T19:36:33.918Z,8.48
2023-03-06T19:39:07.063Z,8.52
2023-03-06T19:41:36.418Z,8.88
2023-03-06T19:44:06.348Z,9.88
2023-03-06T19:46:36.368Z,7.05
2023-03-06T19:49:11.773Z,7.50
2023-03-06T19:51:40.443Z,8.60
2023-03-06T19:54:14.727Z,5.90
2023-03-06T19:56:43.596Z,7.20
2023-03-06T19:59:12.176Z,7.85
2023-03-06T20:01:40.808Z,9.73
2023-03-06T20:04:09.594Z,7.45
2023-03-06T20:06:38.965Z,8.55
2023-03-06T20:09:10.540Z,10.18
2023-03-06T20:11:40.727Z,9.27
2023-03-06T20:14:10.249Z,6.60
2023-03-06T20:16:39.541Z,7.13
2023-03-06T20:19:08.954Z,8.65
2023-03-06T20:21:38.232Z,9.63
2023-03-06T20:24:08.090Z,9.45
2023-03-06T20:26:38.724Z,9.60
2023-03-06T20:29:08.767Z,9.10
2023-03-06T20:31:37.940Z,8.05
2023-03-06T20:34:06.506Z,11.02
2023-03-06T20:36:37.749Z,10.07
2023-03-06T20:39:09.050Z,6.88
2023-03-06T20:41:38.830Z,10.90
2023-03-06T20:44:12.528Z,8.75
2023-03-06T20:46:42.032Z,10.13
2023-03-06T20:49:13.149Z,9.70
2023-03-06T20:51:42.627Z,7.45
2023-03-06T20:54:13.635Z,10.32
2023-03-06T20:56:43.617Z,10.18
2023-03-06T20:59:16.560Z,8.18
2023-03-06T21:01:46.953Z,10.20
2023-03-06T21:04:16.515Z,7.60
2023-03-06T21:06:46.861Z,9.93
2023-03-06T21:09:17.365Z,8.88
2023-03-06T21:11:46.206Z,9.88
2023-03-06T21:14:16.519Z,8.55
2023-03-06T21:16:45.433Z,8.13
2023-03-06T21:19:14.299Z,8.20
2023-03-06T21:21:43.535Z,11.52
2023-03-06T21:24:12.259Z,13.13
2023-03-06T21:26:40.762Z,10.98
2023-03-06T21:29:10.043Z,8.88
2023-03-06T21:31:41.161Z,8.65
2023-03-06T21:34:11.425Z,11.65
2023-03-06T21:36:42.631Z,8.45
2023-03-06T21:39:11.593Z,7.95
2023-03-06T21:41:40.629Z,9.27
2023-03-06T21:44:09.773Z,10.25
2023-03-06T21:46:39.693Z,8.88
2023-03-06T21:49:08.214Z,8.00
2023-03-06T21:51:37.126Z,9.95
2023-03-06T21:54:09.785Z,7.55
2023-03-06T21:56:38.478Z,8.98
2023-03-06T21:59:07.059Z,9.93
2023-03-06T22:01:35.839Z,8.07
2023-03-06T22:04:06.167Z,9.80
2023-03-06T22:06:35.126Z,10.15
2023-03-06T22:09:04.507Z,7.78
2023-03-06T22:11:37.937Z,7.40
2023-03-06T22:14:07.604Z,9.35
2023-03-06T22:16:36.078Z,11.75
2023-03-06T22:19:07.377Z,8.20
2023-03-06T22:21:36.272Z,8.57
2023-03-06T22:24:07.469Z,7.35
2023-03-06T22:26:37.009Z,9.30
2023-03-06T22:29:05.534Z,7.75
2023-03-06T22:31:34.279Z,6.70
2023-03-06T22:34:02.966Z,7.45
2023-03-06T22:36:35.197Z,7.03
2023-03-06T22:39:04.439Z,7.85
2023-03-06T22:41:33.337Z,8.55
2023-03-06T22:44:03.685Z,8.43
2023-03-06T22:46:33.686Z,8.00
2023-03-06T22:49:03.347Z,6.20
2023-03-06T22:51:33.625Z,8.00
2023-03-06T22:54:04.565Z,5.63
2023-03-06T22:56:33.357Z,7.97
2023-03-06T22:59:02.297Z,7.03
2023-03-06T23:01:33.523Z,6.20
2023-03-06T23:04:03.698Z,7.45
2023-03-06T23:06:36.189Z,7.40
2023-03-06T23:09:07.360Z,6.05
2023-03-06T23:11:54.479Z,6.55
2023-03-06T23:14:41.787Z,6.13
2023-03-06T23:17:29.349Z,8.20
2023-03-06T23:20:17.117Z,6.50
2023-03-06T23:23:06.032Z,6.60
2023-03-06T23:25:44.080Z,6.70
2023-03-06T23:28:13.499Z,5.53
2023-03-06T23:30:43.936Z,5.05
2023-03-06T23:33:12.803Z,8.00
2023-03-06T23:35:43.613Z,5.18
2023-03-06T23:38:13.772Z,5.18
2023-03-06T23:40:42.883Z,6.40
2023-03-06T23:43:12.773Z,5.40
2023-03-06T23:45:41.459Z,6.28
2023-03-06T23:48:10.127Z,5.50
2023-03-06T23:50:41.190Z,4.75
2023-03-06T23:53:10.083Z,4.60
2023-03-06T23:55:44.212Z,4.35
2023-03-06T23:58:16.817Z,4.90
